Time;durP1;ratioP1;P1;durP2;ratioP2;P2;SDS_P1;SDS_P2;PMS_P1;PMS_P2;Temp;Humidity;BMP_temperature;BMP_pressure;BME280_temperature;BME280_humidity;BME280_pressure;Samples;Min_cycle;Max_cycle;Signal;HPM_P1;HPM_P2
2021/04/06 00:01:14;;;;;;;1.73;1.57;;;-1.60;99.90;;;;;;5110943;29;20190;-68
2021/04/06 00:03:47;;;;;;;3.20;1.70;;;-1.60;99.90;;;;;;5111115;29;20280;-70
2021/04/06 00:06:20;;;;;;;3.83;1.90;;;-1.60;99.90;;;;;;5110135;29;20244;-68
2021/04/06 00:08:52;;;;;;;4.47;1.97;;;-1.50;99.90;;;;;;5110523;29;20213;-70
2021/04/06 00:11:26;;;;;;;4.20;1.87;;;-1.40;99.90;;;;;;5109848;29;20225;-70
2021/04/06 00:13:58;;;;;;;3.50;2.10;;;-1.30;99.90;;;;;;5110460;29;20200;-69
2021/04/06 00:16:31;;;;;;;5.63;2.03;;;-1.20;99.90;;;;;;5109978;29;20198;-69
2021/04/06 00:19:03;;;;;;;6.23;2.37;;;-1.10;99.90;;;;;;5110562;29;20215;-69
2021/04/06 00:21:36;;;;;;;3.00;1.93;;;-1.00;99.90;;;;;;5110274;29;20547;-69
2021/04/06 00:24:09;;;;;;;6.33;2.30;;;-0.90;99.90;;;;;;5110224;29;20599;-70
2021/04/06 00:27:01;;;;;;;5.33;2.50;;;-0.90;99.90;;;;;;5109635;29;20217;-69
2021/04/06 00:29:35;;;;;;;5.30;2.20;;;-0.80;99.90;;;;;;5110005;29;20213;-71
2021/04/06 00:32:08;;;;;;;5.17;2.60;;;-0.80;99.90;;;;;;5110012;29;20602;-70
2021/04/06 00:34:41;;;;;;;6.30;2.50;;;-0.80;99.90;;;;;;5109979;29;20220;-68
2021/04/06 00:37:16;;;;;;;3.50;2.13;;;-0.80;99.90;;;;;;5110691;29;20205;-69
2021/04/06 00:39:55;;;;;;;6.70;2.63;;;-0.70;99.90;;;;;;5109853;29;20628;-68
2021/04/06 00:42:28;;;;;;;3.87;2.20;;;-0.70;99.90;;;;;;5109466;29;20201;-69
2021/04/06 00:45:07;;;;;;;6.57;2.03;;;-0.70;99.90;;;;;;5109413;29;20210;-69
2021/04/06 00:47:39;;;;;;;3.13;2.37;;;-0.70;99.90;;;;;;5092659;29;20198;-69
2021/04/06 00:50:15;;;;;;;4.03;1.97;;;-0.60;99.90;;;;;;5109330;29;20208;-69
2021/04/06 00:56:44;;;;;;;2.33;1.63;;;-0.60;99.90;;;;;;5108882;29;20192;-68
2021/04/06 00:59:21;;;;;;;3.37;1.57;;;-0.50;99.90;;;;;;5109495;29;20197;-69
2021/04/06 01:02:03;;;;;;;3.97;2.10;;;-0.50;99.90;;;;;;5109658;29;20204;-70
2021/04/06 01:04:38;;;;;;;2.23;1.80;;;-0.50;99.90;;;;;;5108984;29;20233;-70
2021/04/06 01:07:17;;;;;;;1.67;1.30;;;-0.40;99.90;;;;;;5110222;29;20197;-70
2021/04/06 01:13:45;;;;;;;1.53;1.30;;;-0.30;99.90;;;;;;5110824;29;20249;-68
2021/04/06 01:16:17;;;;;;;3.50;1.33;;;-0.30;99.90;;;;;;5109871;29;20197;-69
2021/04/06 01:18:49;;;;;;;2.33;1.50;;;-0.30;99.90;;;;;;5093359;29;20657;-69
2021/04/06 01:21:22;;;;;;;2.87;1.73;;;-0.30;99.90;;;;;;5109606;29;20559;-71
2021/04/06 01:23:53;;;;;;;2.83;1.53;;;-0.30;99.90;;;;;;5108787;29;20197;-68
2021/04/06 01:26:25;;;;;;;3.00;1.60;;;-0.40;99.90;;;;;;5108728;29;20197;-68
2021/04/06 01:28:56;;;;;;;2.10;1.30;;;-0.40;99.90;;;;;;5108932;29;20226;-69
2021/04/06 01:31:28;;;;;;;2.67;1.40;;;-0.50;99.90;;;;;;5108559;29;20208;-67
2021/04/06 01:34:02;;;;;;;1.87;1.40;;;-0.50;99.90;;;;;;5109117;29;20201;-68
2021/04/06 01:36:34;;;;;;;2.23;1.30;;;-0.50;99.90;;;;;;5109897;29;20647;-68
2021/04/06 01:39:06;;;;;;;1.57;1.30;;;-0.60;99.90;;;;;;5108807;29;20288;-67
2021/04/06 01:41:38;;;;;;;1.20;1.10;;;-0.60;99.90;;;;;;5108459;29;20246;-70
2021/04/06 01:44:10;;;;;;;1.80;1.13;;;-0.60;99.90;;;;;;5108857;29;20256;-68
2021/04/06 01:46:45;;;;;;;1.30;1.03;;;-0.70;99.90;;;;;;5108198;29;20201;-68
2021/04/06 01:49:18;;;;;;;0.80;0.80;;;-0.70;99.90;;;;;;5108538;29;20197;-68
2021/04/06 01:51:54;;;;;;;0.80;0.80;;;-0.70;99.90;;;;;;5107932;29;20217;-68
2021/04/06 01:54:26;;;;;;;1.77;0.97;;;-0.70;99.90;;;;;;5108121;29;20214;-68
2021/04/06 01:57:03;;;;;;;1.30;1.07;;;-0.80;99.90;;;;;;5109132;29;20634;-69
2021/04/06 01:59:41;;;;;;;2.70;1.10;;;-0.80;99.90;;;;;;5111326;29;20196;-68
2021/04/06 02:02:13;;;;;;;1.50;0.90;;;-0.80;99.90;;;;;;5111247;29;20197;-68
2021/04/06 02:04:46;;;;;;;1.53;0.80;;;-0.70;99.90;;;;;;5109788;29;20241;-69
2021/04/06 02:07:24;;;;;;;1.23;0.90;;;-0.70;99.90;;;;;;5110252;29;20544;-68
2021/04/06 02:09:57;;;;;;;1.93;0.90;;;-0.70;99.90;;;;;;5108950;29;20221;-69
2021/04/06 02:12:29;;;;;;;1.40;0.90;;;-0.70;99.90;;;;;;5109893;29;20221;-69
2021/04/06 02:15:01;;;;;;;1.73;1.13;;;-0.60;99.90;;;;;;5108441;29;20566;-70
2021/04/06 02:17:44;;;;;;;1.23;0.80;;;-0.60;99.90;;;;;;5108279;29;20206;-68
2021/04/06 02:20:20;;;;;;;1.13;0.70;;;-0.60;99.90;;;;;;5107657;29;20198;-68
2021/04/06 02:22:59;;;;;;;1.17;1.00;;;-0.60;99.90;;;;;;5107670;29;20206;-68
2021/04/06 02:25:31;;;;;;;1.37;0.80;;;-0.60;99.90;;;;;;5107528;29;20198;-68
2021/04/06 02:28:03;;;;;;;2.17;1.17;;;-0.60;99.90;;;;;;5108016;29;20213;-68
2021/04/06 02:30:34;;;;;;;2.07;1.13;;;-0.70;99.90;;;;;;5107667;29;20200;-67
2021/04/06 02:33:06;;;;;;;3.37;1.27;;;-0.70;99.90;;;;;;5108011;29;20580;-73
2021/04/06 02:35:37;;;;;;;3.63;1.40;;;-0.60;99.90;;;;;;5108361;29;20194;-69
2021/04/06 02:42:25;;;;;;;5.27;1.67;;;-0.60;99.90;;;;;;5107228;29;20263;-68
2021/04/06 02:45:13;;;;;;;6.77;1.97;;;-0.60;99.90;;;;;;5107100;29;20215;-68
2021/04/06 02:47:48;;;;;;;6.50;1.70;;;-0.60;99.90;;;;;;5107585;29;20197;-68
2021/04/06 02:50:25;;;;;;;8.23;2.20;;;-0.50;99.90;;;;;;5107340;29;20530;-67
2021/04/06 02:52:57;;;;;;;6.43;2.30;;;-0.50;99.90;;;;;;5107478;29;20233;-68
2021/04/06 02:59:25;;;;;;;16.97;2.70;;;-0.40;99.90;;;;;;5106939;29;20176;-68
2021/04/06 03:02:00;;;;;;;14.87;2.90;;;-0.30;99.90;;;;;;5107042;29;20637;-69
2021/04/06 03:04:31;;;;;;;12.80;3.03;;;-0.30;99.90;;;;;;5106638;29;20239;-69
2021/04/06 03:07:03;;;;;;;11.17;2.80;;;-0.20;99.90;;;;;;5089768;29;20205;-69
2021/04/06 03:09:34;;;;;;;11.00;3.20;;;-0.10;99.90;;;;;;5106456;29;20211;-68
2021/04/06 03:12:06;;;;;;;12.07;3.33;;;-0.10;99.90;;;;;;5106948;29;20218;-68
2021/04/06 03:14:38;;;;;;;11.80;3.30;;;0.00;99.90;;;;;;5106941;29;20201;-71
2021/04/06 03:17:09;;;;;;;12.57;3.87;;;0.00;99.90;;;;;;5106645;29;20201;-68
2021/04/06 03:19:43;;;;;;;10.73;3.17;;;0.00;99.90;;;;;;5106755;29;20564;-68
2021/04/06 03:22:15;;;;;;;15.63;4.03;;;0.00;99.90;;;;;;5106962;29;20659;-68
2021/04/06 03:24:48;;;;;;;18.97;4.23;;;0.10;99.90;;;;;;5106842;29;20201;-68
2021/04/06 03:27:29;;;;;;;15.17;3.33;;;0.10;99.90;;;;;;5106410;29;20202;-68
2021/04/06 03:30:02;;;;;;;17.57;3.70;;;0.20;99.90;;;;;;5090147;29;20200;-69
2021/04/06 03:32:33;;;;;;;15.43;3.43;;;0.20;99.90;;;;;;5106805;29;20217;-68
2021/04/06 03:35:05;;;;;;;16.50;3.90;;;0.30;99.90;;;;;;5107283;29;20198;-70
2021/04/06 03:37:37;;;;;;;22.10;4.00;;;0.40;99.90;;;;;;5106720;29;20198;-68
2021/04/06 03:40:10;;;;;;;19.97;3.63;;;0.40;99.90;;;;;;5106582;29;20213;-69
2021/04/06 03:42:41;;;;;;;19.30;3.80;;;0.50;99.90;;;;;;5089873;29;20227;-69
2021/04/06 03:45:13;;;;;;;15.90;3.70;;;0.50;99.90;;;;;;5106268;29;20211;-69
2021/04/06 03:48:18;;;;;;;19.50;3.50;;;0.50;99.90;;;;;;5106572;29;20190;-69
2021/04/06 03:50:50;;;;;;;19.93;3.37;;;0.50;99.90;;;;;;5106524;29;20193;-69
2021/04/06 03:53:25;;;;;;;13.60;3.30;;;0.50;99.90;;;;;;5106455;29;20221;-68
2021/04/06 03:56:33;;;;;;;21.70;3.67;;;0.60;99.90;;;;;;5104311;29;20361;-68
2021/04/06 03:59:10;;;;;;;17.83;3.30;;;0.60;99.90;;;;;;5104132;29;20206;-67
2021/04/06 04:01:41;;;;;;;16.37;3.63;;;0.50;99.90;;;;;;5104118;29;20228;-68
2021/04/06 04:04:14;;;;;;;13.67;3.33;;;0.50;99.90;;;;;;5103987;29;20228;-69
2021/04/06 04:06:45;;;;;;;18.07;2.87;;;0.50;99.90;;;;;;5104316;29;20255;-68
2021/04/06 04:13:02;;;;;;;16.57;2.70;;;0.60;99.90;;;;;;5104154;29;20249;-69
2021/04/06 04:15:34;;;;;;;21.37;3.17;;;0.60;99.90;;;;;;5104184;29;20337;-68
2021/04/06 04:18:06;;;;;;;20.07;4.30;;;0.60;99.90;;;;;;5088442;29;20205;-69
2021/04/06 04:20:37;;;;;;;17.83;3.10;;;0.60;99.90;;;;;;5103567;29;20538;-69
2021/04/06 04:23:09;;;;;;;28.80;3.47;;;0.70;99.90;;;;;;5103890;29;20194;-69
2021/04/06 04:29:26;;;;;;;16.70;2.67;;;0.70;99.90;;;;;;5106201;29;20185;-70
2021/04/06 04:31:58;;;;;;;13.60;3.40;;;0.70;99.90;;;;;;5107182;29;20571;-68
2021/04/06 04:34:29;;;;;;;23.47;4.00;;;0.80;99.90;;;;;;5092749;29;20201;-69
2021/04/06 04:37:01;;;;;;;16.70;3.17;;;0.80;99.90;;;;;;5110932;29;20200;-69
2021/04/06 04:39:32;;;;;;;19.03;3.10;;;0.80;99.90;;;;;;5112358;29;20209;-69
2021/04/06 04:42:03;;;;;;;18.07;3.10;;;0.80;99.90;;;;;;5112516;29;20221;-69
2021/04/06 04:44:35;;;;;;;19.57;3.37;;;0.90;99.90;;;;;;5110500;29;20558;-70
2021/04/06 04:47:06;;;;;;;21.10;3.37;;;1.00;99.90;;;;;;5110325;29;20190;-68
2021/04/06 04:49:38;;;;;;;16.30;3.63;;;1.00;99.90;;;;;;5111502;29;20209;-68
2021/04/06 04:52:10;;;;;;;15.23;3.30;;;1.00;99.90;;;;;;5110581;29;20232;-70
2021/04/06 04:54:41;;;;;;;13.80;2.93;;;1.00;99.90;;;;;;5110376;29;20210;-69
2021/04/06 04:57:12;;;;;;;14.77;2.93;;;1.00;99.90;;;;;;5111016;29;20212;-69
2021/04/06 04:59:44;;;;;;;14.90;3.33;;;1.00;99.90;;;;;;5110910;29;20277;-68
2021/04/06 05:02:15;;;;;;;13.60;3.60;;;1.10;99.90;;;;;;5094275;29;20209;-67
2021/04/06 05:04:46;;;;;;;16.83;3.60;;;1.10;99.90;;;;;;5092743;29;20233;-69
2021/04/06 05:07:18;;;;;;;14.57;2.83;;;1.20;99.90;;;;;;5110338;29;20210;-67
2021/04/06 05:09:49;;;;;;;17.57;3.77;;;1.30;99.90;;;;;;5110094;29;20586;-68
2021/04/06 05:12:21;;;;;;;11.20;2.90;;;1.50;99.90;;;;;;5093329;29;20669;-67
2021/04/06 05:14:55;;;;;;;15.27;2.90;;;1.60;99.90;;;;;;5109811;29;20205;-66
2021/04/06 05:17:27;;;;;;;19.30;3.93;;;1.70;99.90;;;;;;5110201;29;20280;-66
2021/04/06 05:19:58;;;;;;;16.43;3.80;;;1.80;99.90;;;;;;5109788;29;20208;-67
2021/04/06 05:22:29;;;;;;;14.27;3.33;;;1.80;99.90;;;;;;5109789;29;20663;-70
2021/04/06 05:25:01;;;;;;;14.03;3.43;;;1.90;99.90;;;;;;5109779;29;20200;-67
2021/04/06 05:27:33;;;;;;;19.47;2.90;;;1.90;99.90;;;;;;5109490;29;20205;-67
2021/04/06 05:30:06;;;;;;;12.70;2.77;;;2.00;99.90;;;;;;5109681;29;20194;-66
2021/04/06 05:32:37;;;;;;;17.07;3.67;;;1.90;99.90;;;;;;5108951;29;20224;-66
2021/04/06 05:35:09;;;;;;;14.17;5.03;;;2.00;99.90;;;;;;5109267;29;20234;-65
2021/04/06 05:37:41;;;;;;;12.57;2.50;;;2.10;99.90;;;;;;5109484;29;20641;-65
2021/04/06 05:40:12;;;;;;;15.07;3.10;;;2.10;99.90;;;;;;5108872;29;20213;-67
2021/04/06 05:42:44;;;;;;;19.50;3.83;;;2.20;99.90;;;;;;5108764;29;20560;-68
2021/04/06 05:45:19;;;;;;;15.53;3.20;;;2.20;99.90;;;;;;5107330;29;20201;-68
2021/04/06 05:47:55;;;;;;;18.23;3.53;;;2.30;99.90;;;;;;5110576;29;20205;-67
2021/04/06 05:50:27;;;;;;;18.73;3.20;;;2.30;99.90;;;;;;5108677;29;20193;-66
2021/04/06 05:53:00;;;;;;;15.53;3.03;;;2.40;99.90;;;;;;5108979;29;20321;-66
2021/04/06 05:55:32;;;;;;;16.83;3.20;;;2.50;99.90;;;;;;5091808;29;20194;-66
2021/04/06 05:58:03;;;;;;;14.50;3.13;;;2.60;99.90;;;;;;5091525;29;20202;-65
2021/04/06 06:00:35;;;;;;;14.20;3.10;;;2.60;99.90;;;;;;5091262;29;20233;-64
2021/04/06 06:03:08;;;;;;;17.80;3.27;;;2.60;99.90;;;;;;5091284;29;20557;-67
2021/04/06 06:05:42;;;;;;;16.97;3.60;;;2.70;99.90;;;;;;5094976;29;20230;-70
2021/04/06 06:08:15;;;;;;;14.20;3.00;;;2.70;99.90;;;;;;5106353;29;20579;-65
2021/04/06 06:10:47;;;;;;;13.47;3.43;;;2.80;99.90;;;;;;5107835;29;20220;-69
2021/04/06 06:13:25;;;;;;;20.00;3.57;;;3.00;99.90;;;;;;5106037;29;20232;-69
2021/04/06 06:16:22;;;;;;;14.30;3.03;;;3.30;99.90;;;;;;5075170;29;20236;-66
2021/04/06 06:19:09;;;;;;;11.17;3.00;;;3.60;99.90;;;;;;5107043;29;20201;-66
2021/04/06 06:21:47;;;;;;;12.37;3.43;;;3.70;99.90;;;;;;5106190;29;20201;-66
2021/04/06 06:28:10;;;;;;;16.80;3.30;;;3.50;99.90;;;;;;5106555;29;20176;-67
2021/04/06 06:30:42;;;;;;;12.73;3.03;;;3.40;99.90;;;;;;5106740;29;20209;-68
2021/04/06 06:33:27;;;;;;;9.93;2.77;;;3.30;99.90;;;;;;5107180;29;20273;-70
2021/04/06 06:36:10;;;;;;;15.13;3.27;;;3.30;99.90;;;;;;5106939;29;20198;-68
2021/04/06 06:38:43;;;;;;;17.90;3.33;;;3.40;99.90;;;;;;5107114;29;20201;-67
2021/04/06 06:45:03;;;;;;;15.50;3.47;;;3.30;99.90;;;;;;5106673;29;20170;-67
2021/04/06 06:47:34;;;;;;;12.17;3.40;;;3.20;99.90;;;;;;5106514;29;20284;-68
2021/04/06 06:50:11;;;;;;;12.67;3.07;;;3.30;99.90;;;;;;5106328;29;20190;-67
2021/04/06 06:52:43;;;;;;;17.57;3.60;;;4.00;99.90;;;;;;5107066;29;20225;-69
2021/04/06 06:55:25;;;;;;;9.30;3.20;;;4.40;99.90;;;;;;5106381;29;20233;-68
2021/04/06 06:58:06;;;;;;;14.10;3.23;;;4.60;99.90;;;;;;5106379;29;20237;-71
2021/04/06 07:00:38;;;;;;;17.90;3.40;;;4.70;99.90;;;;;;5090683;29;20560;-68
2021/04/06 07:03:15;;;;;;;15.10;3.50;;;5.00;99.90;;;;;;5108381;29;20193;-67
2021/04/06 07:05:46;;;;;;;12.03;3.10;;;5.30;99.90;;;;;;5107007;29;20807;-66
2021/04/06 07:08:34;;;;;;;14.07;3.20;;;5.40;99.90;;;;;;5106401;29;20198;-68
2021/04/06 07:11:07;;;;;;;13.27;3.07;;;5.60;99.90;;;;;;5091559;29;20197;-67
2021/04/06 07:13:40;;;;;;;12.87;3.47;;;5.70;99.90;;;;;;5089156;29;20229;-69
2021/04/06 07:16:15;;;;;;;10.83;2.53;;;5.60;99.90;;;;;;5106692;29;20194;-67
2021/04/06 07:18:51;;;;;;;10.77;3.33;;;5.50;99.90;;;;;;5106229;29;20554;-70
2021/04/06 07:21:25;;;;;;;11.63;2.87;;;5.20;99.90;;;;;;5106188;29;20675;-68
2021/04/06 07:24:08;;;;;;;11.43;2.77;;;4.70;99.90;;;;;;5106287;29;20667;-67
2021/04/06 07:26:40;;;;;;;9.90;3.70;;;4.30;99.90;;;;;;5106040;29;20197;-68
2021/04/06 07:29:13;;;;;;;10.43;2.97;;;4.20;99.90;;;;;;5089036;29;20197;-68
2021/04/06 07:31:46;;;;;;;12.23;3.60;;;4.60;99.90;;;;;;5106447;29;20209;-67
2021/04/06 07:34:18;;;;;;;15.13;3.23;;;5.00;99.90;;;;;;5099031;29;20322;-68
2021/04/06 07:36:52;;;;;;;14.77;3.63;;;5.20;99.90;;;;;;5103928;29;20572;-68
2021/04/06 07:39:24;;;;;;;7.17;2.67;;;5.20;99.90;;;;;;5105750;29;20196;-67
2021/04/06 07:41:56;;;;;;;13.97;3.03;;;5.10;99.90;;;;;;5105702;29;20212;-67
2021/04/06 07:44:30;;;;;;;10.63;3.00;;;5.00;99.90;;;;;;5105949;29;20202;-68
2021/04/06 07:47:02;;;;;;;10.60;3.30;;;4.80;99.90;;;;;;5088322;29;20202;-70
2021/04/06 07:49:37;;;;;;;11.57;2.47;;;4.80;99.90;;;;;;5103841;29;20688;-69
2021/04/06 07:52:17;;;;;;;15.80;3.13;;;5.00;99.90;;;;;;5105788;29;20217;-69
2021/04/06 07:58:52;;;;;;;13.73;3.17;;;5.20;99.90;;;;;;5105504;29;20668;-68
2021/04/06 08:01:27;;;;;;;15.93;3.17;;;5.30;99.90;;;;;;5106087;29;20212;-70
2021/04/06 08:04:01;;;;;;;16.00;2.83;;;5.40;99.90;;;;;;5104553;29;20205;-67
2021/04/06 08:06:45;;;;;;;11.67;2.90;;;5.20;99.90;;;;;;5105246;29;20352;-70
2021/04/06 08:09:32;;;;;;;10.97;2.90;;;5.10;99.90;;;;;;5092805;29;20200;-68
2021/04/06 08:16:18;;;;;;;12.90;2.83;;;5.20;99.90;;;;;;5109552;29;20200;-70
2021/04/06 08:19:03;;;;;;;10.93;2.80;;;5.30;99.90;;;;;;5092169;29;20645;-68
2021/04/06 08:21:34;;;;;;;16.03;3.67;;;5.20;99.90;;;;;;5109038;29;20563;-71
2021/04/06 08:24:21;;;;;;;11.87;3.17;;;5.20;99.90;;;;;;5092134;29;20667;-66
2021/04/06 08:26:52;;;;;;;14.40;3.20;;;5.40;99.90;;;;;;5108654;29;20198;-67
2021/04/06 08:29:24;;;;;;;11.93;2.57;;;5.40;99.90;;;;;;5109001;29;20205;-65
2021/04/06 08:32:16;;;;;;;9.20;2.67;;;5.70;99.90;;;;;;5109383;29;20253;-67
2021/04/06 08:34:51;;;;;;;11.27;3.10;;;5.60;99.90;;;;;;5109341;29;20548;-68
2021/04/06 08:37:38;;;;;;;16.23;3.60;;;5.60;99.90;;;;;;5109296;29;20189;-67
2021/04/06 08:43:57;;;;;;;11.40;3.47;;;5.20;99.90;;;;;;5109543;29;20200;-67
2021/04/06 08:46:37;;;;;;;10.93;3.00;;;5.00;99.90;;;;;;5076837;29;20223;-70
2021/04/06 08:49:23;;;;;;;13.97;3.20;;;4.90;99.90;;;;;;5109244;29;20201;-67
2021/04/06 08:52:00;;;;;;;11.83;3.40;;;4.80;99.90;;;;;;5108713;29;20200;-68
2021/04/06 08:54:33;;;;;;;14.33;3.37;;;4.60;99.90;;;;;;5108804;29;20202;-66
2021/04/06 09:01:01;;;;;;;13.17;3.70;;;4.30;99.90;;;;;;5105138;29;20198;-68
2021/04/06 09:03:34;;;;;;;10.87;3.20;;;4.10;99.90;;;;;;5091962;29;20213;-71
2021/04/06 09:06:11;;;;;;;17.00;3.87;;;4.20;99.90;;;;;;5108870;29;20241;-70
2021/04/06 09:08:53;;;;;;;17.33;3.87;;;4.30;99.90;;;;;;5092241;29;20201;-70
2021/04/06 09:11:26;;;;;;;17.57;3.77;;;4.60;99.90;;;;;;5091942;29;20201;-71
2021/04/06 09:13:58;;;;;;;16.57;3.60;;;4.80;99.90;;;;;;5109118;29;20317;-71
2021/04/06 09:16:31;;;;;;;15.87;3.63;;;5.00;99.90;;;;;;5109156;29;20201;-69
2021/04/06 09:19:08;;;;;;;12.40;2.33;;;5.10;99.90;;;;;;5109165;29;20205;-69
2021/04/06 09:21:44;;;;;;;12.00;3.40;;;5.20;99.90;;;;;;5108814;29;20281;-71
2021/04/06 09:24:16;;;;;;;11.77;3.20;;;5.20;99.90;;;;;;5108526;29;20193;-70
2021/04/06 09:26:50;;;;;;;11.17;3.30;;;5.10;99.90;;;;;;5108322;29;20204;-69
2021/04/06 09:29:30;;;;;;;11.90;3.70;;;5.10;99.90;;;;;;5108506;29;20193;-69
2021/04/06 09:32:11;;;;;;;8.47;3.00;;;5.10;99.90;;;;;;5108145;29;20201;-72
2021/04/06 09:34:45;;;;;;;17.33;3.70;;;5.20;99.90;;;;;;5108739;29;20206;-71
2021/04/06 09:37:21;;;;;;;9.30;2.67;;;5.30;99.90;;;;;;5108519;29;20560;-73
2021/04/06 09:39:55;;;;;;;12.53;3.67;;;5.40;99.90;;;;;;5091301;29;20208;-70
2021/04/06 09:42:26;;;;;;;9.87;3.40;;;5.50;99.90;;;;;;5108033;29;20202;-71
2021/04/06 09:44:58;;;;;;;11.83;3.30;;;5.50;99.90;;;;;;5108093;29;20667;-69
2021/04/06 09:47:34;;;;;;;14.47;4.30;;;5.30;99.90;;;;;;5107940;29;20205;-73
2021/04/06 09:50:08;;;;;;;9.50;3.27;;;5.10;99.90;;;;;;5107565;29;20220;-70
2021/04/06 09:52:41;;;;;;;18.03;3.60;;;5.00;99.90;;;;;;5090769;29;20225;-71
2021/04/06 09:55:13;;;;;;;12.93;3.77;;;4.90;99.90;;;;;;5108287;29;20664;-70
2021/04/06 09:57:47;;;;;;;15.73;3.43;;;4.90;99.90;;;;;;5090396;29;20202;-71
2021/04/06 10:00:25;;;;;;;13.40;3.13;;;4.90;99.90;;;;;;5090868;29;20228;-71
2021/04/06 10:03:24;;;;;;;13.67;4.30;;;4.90;99.90;;;;;;5107286;29;20637;-70
2021/04/06 10:06:08;;;;;;;13.87;4.27;;;5.00;99.90;;;;;;5107041;29;20704;-71
2021/04/06 10:08:40;;;;;;;13.57;3.80;;;5.00;99.90;;;;;;5107690;29;20189;-71
2021/04/06 10:14:58;;;;;;;18.70;3.10;;;5.00;99.90;;;;;;5108103;29;20698;-73
2021/04/06 10:17:41;;;;;;;12.57;3.13;;;4.90;99.90;;;;;;5107955;29;20198;-69
2021/04/06 10:20:22;;;;;;;11.93;3.73;;;4.80;99.90;;;;;;5107546;29;20197;-65
2021/04/06 10:22:58;;;;;;;8.53;2.80;;;4.80;99.90;;;;;;5108035;29;20221;-69
2021/04/06 10:25:40;;;;;;;12.00;3.40;;;4.90;99.90;;;;;;5075624;29;20672;-67
2021/04/06 10:32:00;;;;;;;9.27;3.50;;;5.10;99.90;;;;;;5107490;29;20184;-71
2021/04/06 10:34:32;;;;;;;15.67;3.47;;;5.30;99.90;;;;;;5106853;29;20714;-67
2021/04/06 10:37:07;;;;;;;10.53;2.83;;;5.40;99.90;;;;;;5107196;29;20194;-69
2021/04/06 10:39:41;;;;;;;7.97;2.87;;;5.60;99.90;;;;;;5104831;29;20625;-68
2021/04/06 10:42:14;;;;;;;13.00;3.27;;;5.80;99.90;;;;;;5106247;29;20222;-70
2021/04/06 10:44:47;;;;;;;9.03;2.70;;;5.80;99.90;;;;;;5106829;29;20197;-68
2021/04/06 10:47:30;;;;;;;12.37;3.10;;;5.70;99.90;;;;;;5106764;29;20281;-69
2021/04/06 10:50:04;;;;;;;10.67;2.83;;;5.70;99.90;;;;;;5106561;29;20556;-73
2021/04/06 10:52:36;;;;;;;11.30;2.70;;;5.60;99.90;;;;;;5106764;29;20217;-69
2021/04/06 10:55:08;;;;;;;10.40;2.90;;;5.70;99.90;;;;;;5106465;29;20202;-69
2021/04/06 10:57:40;;;;;;;8.00;2.37;;;5.90;99.90;;;;;;5106296;29;20641;-68
2021/04/06 11:00:21;;;;;;;10.30;2.53;;;5.90;99.90;;;;;;5106888;29;20204;-69
2021/04/06 11:03:17;;;;;;;9.53;2.53;;;6.00;99.90;;;;;;5106569;29;20216;-68
2021/04/06 11:05:49;;;;;;;12.43;2.63;;;5.90;99.90;;;;;;5105951;29;20234;-66
2021/04/06 11:08:25;;;;;;;16.60;3.40;;;6.10;99.90;;;;;;5106939;29;20285;-67
2021/04/06 11:14:52;;;;;;;8.77;3.33;;;6.30;99.90;;;;;;5049298;29;20211;-69
2021/04/06 11:17:27;;;;;;;11.13;2.87;;;6.30;99.90;;;;;;5042137;29;20793;-69
2021/04/06 11:19:59;;;;;;;15.00;4.00;;;6.10;99.90;;;;;;5065766;29;20199;-74
2021/04/06 11:22:30;;;;;;;11.33;3.37;;;6.20;99.90;;;;;;5064785;29;20214;-69
2021/04/06 11:25:02;;;;;;;13.47;3.20;;;6.00;99.90;;;;;;5049645;29;20207;-68
2021/04/06 11:31:29;;;;;;;13.63;3.40;;;5.90;99.90;;;;;;5064672;29;20274;-71
2021/04/06 11:34:00;;;;;;;15.00;3.50;;;5.90;99.90;;;;;;5064489;29;20257;-69
2021/04/06 11:36:36;;;;;;;15.40;3.70;;;5.70;99.90;;;;;;5066437;29;20205;-71
2021/04/06 11:39:09;;;;;;;10.43;2.87;;;5.70;99.90;;;;;;5066578;29;20641;-75
2021/04/06 11:41:41;;;;;;;13.13;3.50;;;5.80;99.90;;;;;;5065769;29;20287;-71
2021/04/06 11:44:13;;;;;;;9.77;2.50;;;6.00;99.90;;;;;;5081084;29;20201;-69
2021/04/06 11:46:46;;;;;;;8.93;2.83;;;6.10;99.90;;;;;;5093109;29;20198;-71
2021/04/06 11:49:17;;;;;;;14.13;2.73;;;6.10;99.90;;;;;;5109898;29;20196;-71
2021/04/06 11:51:49;;;;;;;12.50;3.13;;;6.10;99.90;;;;;;5109647;29;20200;-70
2021/04/06 11:54:21;;;;;;;10.27;2.93;;;6.20;99.90;;;;;;5109488;29;20228;-71
2021/04/06 11:56:53;;;;;;;11.87;2.83;;;6.30;99.90;;;;;;5109767;29;20198;-70
2021/04/06 11:59:24;;;;;;;12.03;2.77;;;6.40;99.90;;;;;;5109617;29;20223;-70
2021/04/06 12:01:56;;;;;;;10.57;3.00;;;6.50;99.90;;;;;;5109300;29;20242;-70
2021/04/06 12:04:29;;;;;;;9.67;2.63;;;6.50;99.90;;;;;;5108660;29;20230;-71
2021/04/06 12:07:01;;;;;;;11.60;3.27;;;6.70;99.90;;;;;;5110212;29;20202;-69
2021/04/06 12:09:33;;;;;;;12.37;3.70;;;6.80;99.90;;;;;;5110462;29;20190;-69
2021/04/06 12:12:05;;;;;;;10.93;3.00;;;6.80;99.90;;;;;;5108512;29;20216;-69
2021/04/06 12:14:37;;;;;;;8.83;2.70;;;6.90;99.90;;;;;;5110349;29;20582;-73
2021/04/06 12:17:11;;;;;;;8.10;2.57;;;7.20;99.90;;;;;;5111811;29;20197;-70
2021/04/06 12:19:43;;;;;;;11.20;2.37;;;7.20;99.90;;;;;;5111833;29;20256;-68
2021/04/06 12:22:14;;;;;;;7.47;2.30;;;7.10;99.90;;;;;;5110437;29;20660;-71
2021/04/06 12:24:46;;;;;;;9.80;2.47;;;7.10;99.90;;;;;;5109543;29;20205;-67
2021/04/06 12:27:20;;;;;;;10.90;2.80;;;7.10;99.90;;;;;;5109883;29;20202;-73
2021/04/06 12:29:51;;;;;;;10.40;3.10;;;7.00;99.90;;;;;;5110217;29;20216;-70
2021/04/06 12:32:22;;;;;;;12.10;2.57;;;7.00;99.90;;;;;;5111499;29;20202;-71
2021/04/06 12:34:54;;;;;;;7.33;2.37;;;6.90;99.90;;;;;;5108981;29;20208;-68
2021/04/06 12:37:26;;;;;;;10.07;2.57;;;6.80;99.90;;;;;;5110042;29;20657;-68
2021/04/06 12:40:08;;;;;;;8.07;2.73;;;6.80;99.90;;;;;;5094102;29;20204;-71
2021/04/06 12:42:40;;;;;;;7.27;2.60;;;6.90;99.90;;;;;;5110188;29;20536;-70
2021/04/06 12:45:14;;;;;;;13.93;3.20;;;6.90;99.90;;;;;;5109829;29;20205;-69
2021/04/06 12:47:46;;;;;;;6.73;2.63;;;6.70;99.90;;;;;;5109909;29;20670;-68
2021/04/06 12:50:18;;;;;;;10.47;3.40;;;6.60;99.90;;;;;;5110417;29;20201;-71
2021/04/06 12:52:51;;;;;;;9.93;2.97;;;6.40;99.90;;;;;;5108686;29;20684;-70
2021/04/06 12:55:22;;;;;;;5.93;2.43;;;6.40;99.90;;;;;;5092687;29;20245;-68
2021/04/06 12:57:55;;;;;;;6.00;1.70;;;6.40;99.90;;;;;;5091893;29;20198;-69
2021/04/06 13:00:28;;;;;;;7.77;2.27;;;6.50;99.90;;;;;;5108954;29;20577;-68
2021/04/06 13:02:59;;;;;;;10.03;2.53;;;6.60;99.90;;;;;;5108999;29;20197;-65
2021/04/06 13:05:31;;;;;;;10.37;2.37;;;6.60;99.90;;;;;;5108538;29;20263;-68
2021/04/06 13:08:09;;;;;;;6.83;2.50;;;6.40;99.90;;;;;;5108492;29;20264;-68
2021/04/06 13:10:43;;;;;;;10.63;3.73;;;6.30;99.90;;;;;;5108730;29;20202;-68
2021/04/06 13:13:15;;;;;;;6.60;2.17;;;6.20;99.90;;;;;;5092123;29;20583;-69
2021/04/06 13:15:47;;;;;;;7.20;2.03;;;6.10;99.90;;;;;;5109002;29;20386;-72
2021/04/06 13:18:18;;;;;;;8.77;2.67;;;6.10;99.90;;;;;;5109360;29;20651;-67
2021/04/06 13:20:50;;;;;;;5.73;2.20;;;6.20;99.90;;;;;;5108774;29;20224;-72
2021/04/06 13:23:22;;;;;;;7.33;2.30;;;6.30;99.90;;;;;;5108494;29;20285;-68
2021/04/06 13:25:53;;;;;;;10.17;2.37;;;6.50;99.90;;;;;;5108065;29;20198;-69
2021/04/06 13:28:28;;;;;;;8.43;2.53;;;6.60;99.90;;;;;;5108078;29;20194;-68
2021/04/06 13:31:00;;;;;;;6.90;2.20;;;6.80;99.90;;;;;;5108575;29;20209;-69
2021/04/06 13:33:31;;;;;;;7.83;2.10;;;6.90;99.90;;;;;;5109610;29;20225;-68
2021/04/06 13:36:04;;;;;;;9.40;3.13;;;7.00;99.90;;;;;;5110546;29;20198;-67
2021/04/06 13:38:36;;;;;;;5.10;2.07;;;7.00;99.90;;;;;;5091848;29;20190;-67
2021/04/06 13:41:08;;;;;;;11.53;2.63;;;6.90;99.90;;;;;;5091249;29;20637;-74
2021/04/06 13:43:39;;;;;;;7.47;2.10;;;6.80;99.90;;;;;;5107964;29;20186;-67
2021/04/06 13:46:11;;;;;;;7.20;2.70;;;6.90;99.90;;;;;;5107834;29;20194;-68
2021/04/06 13:48:43;;;;;;;9.13;3.00;;;6.90;99.90;;;;;;5107382;29;20237;-68
2021/04/06 13:51:14;;;;;;;9.17;2.47;;;6.80;99.90;;;;;;5106087;29;20704;-70
2021/04/06 13:53:46;;;;;;;8.13;2.70;;;6.70;99.90;;;;;;5107260;29;20590;-66
2021/04/06 13:56:19;;;;;;;8.77;2.57;;;6.60;99.90;;;;;;5107529;29;20544;-67
2021/04/06 13:58:51;;;;;;;9.40;2.50;;;6.70;99.90;;;;;;5106939;29;20204;-67
2021/04/06 14:01:23;;;;;;;11.33;2.60;;;6.80;99.90;;;;;;5107187;29;20280;-69
2021/04/06 14:03:57;;;;;;;6.83;2.87;;;6.60;99.90;;;;;;5106588;29;20292;-68
2021/04/06 14:06:29;;;;;;;9.77;3.20;;;6.60;99.90;;;;;;5105883;29;20256;-68
2021/04/06 14:09:01;;;;;;;8.67;2.70;;;6.60;99.90;;;;;;5107073;29;20609;-70
2021/04/06 14:11:33;;;;;;;9.50;2.30;;;6.40;99.90;;;;;;5106682;29;20322;-68
2021/04/06 14:14:05;;;;;;;10.20;2.30;;;6.20;99.90;;;;;;5106679;29;20613;-69
2021/04/06 14:16:37;;;;;;;7.30;2.00;;;6.10;99.90;;;;;;5106541;29;20222;-67
2021/04/06 14:19:08;;;;;;;5.87;2.13;;;6.00;99.90;;;;;;5106629;29;20197;-67
2021/04/06 14:21:39;;;;;;;9.97;2.20;;;6.00;99.90;;;;;;5107174;29;20202;-69
2021/04/06 14:24:11;;;;;;;7.23;2.10;;;6.00;99.90;;;;;;5107465;29;20201;-71
2021/04/06 14:26:43;;;;;;;6.23;1.57;;;6.00;99.90;;;;;;5106633;29;20198;-72